createdAt,value
2023-01-23T00:00:01.544Z,-4.80
2023-01-23T00:02:29.178Z,-4.71
2023-01-23T00:04:57.034Z,-4.63
2023-01-23T00:07:24.750Z,-4.58
2023-01-23T00:09:52.392Z,-4.53
2023-01-23T00:12:19.968Z,-4.53
2023-01-23T00:14:47.601Z,-4.58
2023-01-23T00:17:16.582Z,-4.57
2023-01-23T00:19:44.317Z,-4.53
2023-01-23T00:22:14.230Z,-4.66
2023-01-23T00:24:42.128Z,-4.58
2023-01-23T00:27:09.793Z,-4.59
2023-01-23T00:29:37.741Z,-4.57
2023-01-23T00:32:05.748Z,-4.53
2023-01-23T00:34:34.814Z,-4.50
2023-01-23T00:37:02.502Z,-4.52
2023-01-23T00:39:30.268Z,-4.51
2023-01-23T00:41:57.937Z,-4.43
2023-01-23T00:44:25.647Z,-4.36
2023-01-23T00:46:53.295Z,-4.32
2023-01-23T00:49:23.780Z,-4.29
2023-01-23T00:51:56.324Z,-4.25
2023-01-23T00:54:25.957Z,-4.22
2023-01-23T00:56:53.840Z,-4.19
2023-01-23T00:59:21.481Z,-4.12
2023-01-23T01:01:49.228Z,-4.07
2023-01-23T01:04:16.938Z,-4.01
2023-01-23T01:06:44.628Z,-3.94
2023-01-23T01:09:13.703Z,-3.92
2023-01-23T01:11:41.564Z,-3.89
2023-01-23T01:14:09.618Z,-3.84
2023-01-23T01:16:37.518Z,-3.78
2023-01-23T01:19:06.050Z,-3.75
2023-01-23T01:21:33.683Z,-3.72
2023-01-23T01:24:01.305Z,-3.69
2023-01-23T01:26:30.343Z,-3.69
2023-01-23T01:28:58.198Z,-3.71
2023-01-23T01:31:25.930Z,-3.75
2023-01-23T01:33:53.739Z,-3.73
2023-01-23T01:36:23.160Z,-3.68
2023-01-23T01:38:51.338Z,-3.66
2023-01-23T01:41:19.017Z,-3.61
2023-01-23T01:43:48.081Z,-3.58
2023-01-23T01:46:20.148Z,-3.58
2023-01-23T01:48:52.107Z,-3.65
2023-01-23T01:51:20.979Z,-3.65
2023-01-23T01:53:50.850Z,-3.68
2023-01-23T01:56:19.788Z,-3.74
2023-01-23T01:58:50.729Z,-3.70
2023-01-23T02:01:19.216Z,-3.73
2023-01-23T02:03:47.098Z,-3.68
2023-01-23T02:06:15.077Z,-3.77
2023-01-23T02:08:46.681Z,-3.80
2023-01-23T02:11:15.216Z,-3.84
2023-01-23T02:13:43.152Z,-3.79
2023-01-23T02:16:14.494Z,-3.80
2023-01-23T02:18:45.653Z,-3.83
2023-01-23T02:21:14.741Z,-3.85
2023-01-23T02:23:56.852Z,-3.86
2023-01-23T02:26:26.279Z,-3.90
2023-01-23T02:28:55.268Z,-3.87
2023-01-23T02:31:23.967Z,-3.86
2023-01-23T02:33:53.529Z,-3.85
2023-01-23T02:36:23.296Z,-3.88
2023-01-23T02:38:55.319Z,-3.93
2023-01-23T02:41:29.035Z,-3.91
2023-01-23T02:43:58.055Z,-3.91
2023-01-23T02:46:26.368Z,-3.91
2023-01-23T02:48:55.024Z,-3.91
2023-01-23T02:51:24.386Z,-3.94
2023-01-23T02:53:52.184Z,-3.89
2023-01-23T02:56:20.337Z,-3.95
2023-01-23T02:59:06.972Z,-3.97
2023-01-23T03:01:35.877Z,-3.93
2023-01-23T03:04:04.823Z,-3.96
2023-01-23T03:06:36.222Z,-4.04
2023-01-23T03:09:09.651Z,-4.06
2023-01-23T03:11:39.049Z,-4.08
2023-01-23T03:14:09.831Z,-4.03
2023-01-23T03:16:38.579Z,-4.00
2023-01-23T03:19:09.099Z,-3.94
2023-01-23T03:21:38.384Z,-3.92
2023-01-23T03:24:06.748Z,-3.94
2023-01-23T03:26:34.567Z,-3.91
2023-01-23T03:29:19.912Z,-3.85
2023-01-23T03:31:49.053Z,-3.86
2023-01-23T03:34:17.987Z,-3.84
2023-01-23T03:36:45.884Z,-3.79
2023-01-23T03:39:31.298Z,-3.79
2023-01-23T03:41:59.002Z,-3.77
2023-01-23T03:44:26.749Z,-3.73
2023-01-23T03:46:55.952Z,-3.76
2023-01-23T03:49:23.757Z,-3.72
2023-01-23T03:51:51.463Z,-3.74
2023-01-23T03:54:19.092Z,-3.74
2023-01-23T03:56:47.046Z,-3.73
2023-01-23T03:59:14.731Z,-3.72
2023-01-23T04:01:42.523Z,-3.66
2023-01-23T04:04:12.258Z,-3.66
2023-01-23T04:06:40.344Z,-3.64
2023-01-23T04:09:08.401Z,-3.64
2023-01-23T04:11:36.603Z,-3.62
2023-01-23T04:14:04.431Z,-3.62
2023-01-23T04:16:32.185Z,-3.59
2023-01-23T04:19:00.049Z,-3.69
2023-01-23T04:21:29.142Z,-3.70
2023-01-23T04:23:56.750Z,-3.66
2023-01-23T04:26:24.543Z,-3.61
2023-01-23T04:28:52.218Z,-3.58
2023-01-23T04:31:20.059Z,-3.56
2023-01-23T04:33:47.837Z,-3.53
2023-01-23T04:36:15.555Z,-3.49
2023-01-23T04:38:44.710Z,-3.48
2023-01-23T04:41:16.374Z,-3.46
2023-01-23T04:43:44.059Z,-3.49
2023-01-23T04:46:11.762Z,-3.47
2023-01-23T04:48:39.521Z,-3.45
2023-01-23T04:51:07.447Z,-3.48
2023-01-23T04:53:35.242Z,-3.47
2023-01-23T04:56:04.922Z,-3.46
2023-01-23T04:58:32.616Z,-3.46
2023-01-23T05:01:03.870Z,-3.48
2023-01-23T05:03:32.911Z,-3.49
2023-01-23T05:06:00.537Z,-3.56
2023-01-23T05:08:28.239Z,-3.55
2023-01-23T05:10:55.993Z,-3.52
2023-01-23T05:13:25.090Z,-3.53
2023-01-23T05:15:52.796Z,-3.51
2023-01-23T05:18:20.453Z,-3.49
2023-01-23T05:20:48.116Z,-3.52
2023-01-23T05:23:15.921Z,-3.49
2023-01-23T05:25:44.926Z,-3.44
2023-01-23T05:28:12.570Z,-3.38
2023-01-23T05:30:41.773Z,-3.33
2023-01-23T05:33:09.619Z,-3.29
2023-01-23T05:35:39.642Z,-3.31
2023-01-23T05:38:07.944Z,-3.35
2023-01-23T05:40:36.034Z,-3.35
2023-01-23T05:43:03.885Z,-3.36
2023-01-23T05:45:31.986Z,-3.33
2023-01-23T05:48:28.038Z,-3.32
2023-01-23T05:51:26.159Z,-3.34
2023-01-23T05:53:56.388Z,-3.27
2023-01-23T06:00:16.893Z,-3.33
2023-01-23T06:02:44.907Z,-3.32
2023-01-23T06:05:14.545Z,-3.29
2023-01-23T06:07:42.568Z,-3.28
2023-01-23T06:10:11.578Z,-3.26
2023-01-23T06:12:39.549Z,-3.33
2023-01-23T06:15:20.471Z,-3.29
2023-01-23T06:18:10.900Z,-3.35
2023-01-23T06:20:47.036Z,-3.28
2023-01-23T06:23:19.804Z,-3.23
2023-01-23T06:25:48.251Z,-3.29
2023-01-23T06:28:20.995Z,-3.35
2023-01-23T06:30:50.939Z,-3.37
2023-01-23T06:33:27.613Z,-3.38
2023-01-23T06:36:03.715Z,-3.36
2023-01-23T06:38:48.347Z,-3.39
2023-01-23T06:45:00.433Z,-3.39
2023-01-23T06:47:33.648Z,-3.38
2023-01-23T06:51:00.837Z,-3.39
2023-01-23T06:53:14.516Z,-3.38
2023-01-23T06:55:49.837Z,-3.33
2023-01-23T06:58:20.841Z,-3.29
2023-01-23T07:00:57.261Z,-3.32
2023-01-23T07:03:32.452Z,-3.32
2023-01-23T07:06:22.714Z,-3.29
2023-01-23T07:08:59.249Z,-3.25
2023-01-23T07:11:43.448Z,-3.21
2023-01-23T07:14:11.618Z,-3.25
2023-01-23T07:16:42.468Z,-3.25
2023-01-23T07:19:11.877Z,-3.24
2023-01-23T07:21:41.438Z,-3.27
2023-01-23T07:24:17.086Z,-3.23
2023-01-23T07:26:45.158Z,-3.14
2023-01-23T07:29:14.360Z,-3.22
2023-01-23T07:31:42.515Z,-3.27
2023-01-23T07:34:13.049Z,-3.20
2023-01-23T07:36:43.474Z,-3.16
2023-01-23T07:39:16.333Z,-3.12
2023-01-23T07:41:46.520Z,-3.10
2023-01-23T07:44:25.099Z,-3.12
2023-01-23T07:47:07.536Z,-3.09
2023-01-23T07:49:38.883Z,-3.05
2023-01-23T07:52:09.008Z,-2.96
2023-01-23T07:54:47.030Z,-2.96
2023-01-23T07:57:19.644Z,-2.98
2023-01-23T07:59:56.578Z,-3.07
2023-01-23T08:02:26.395Z,-3.08
2023-01-23T08:04:56.915Z,-3.01
2023-01-23T08:07:28.660Z,-3.01
2023-01-23T08:10:03.592Z,-2.95
2023-01-23T08:12:33.145Z,-2.90
2023-01-23T08:15:11.871Z,-2.90
2023-01-23T08:17:41.012Z,-2.90
2023-01-23T08:20:20.803Z,-2.91
2023-01-23T08:22:49.437Z,-2.94
2023-01-23T08:25:22.519Z,-2.95
2023-01-23T08:27:50.566Z,-2.89
2023-01-23T08:30:20.895Z,-2.85
2023-01-23T08:32:54.283Z,-2.86
2023-01-23T08:35:29.220Z,-2.92
2023-01-23T08:38:04.879Z,-2.84
2023-01-23T08:40:52.178Z,-2.82
2023-01-23T08:43:43.295Z,-2.76
2023-01-23T08:46:26.969Z,-2.74
2023-01-23T08:49:27.851Z,-2.71
2023-01-23T08:52:18.701Z,-2.71
2023-01-23T08:55:10.265Z,-2.69
2023-01-23T08:57:51.957Z,-2.59
2023-01-23T09:00:55.967Z,-2.53
2023-01-23T09:04:08.187Z,-2.53
2023-01-23T09:06:50.493Z,-2.51
2023-01-23T09:09:49.289Z,-2.47
2023-01-23T09:13:14.310Z,-2.40
2023-01-23T09:16:03.709Z,-2.35
2023-01-23T09:18:45.614Z,-2.32
2023-01-23T09:21:22.520Z,-2.30
2023-01-23T09:24:18.907Z,-2.25
2023-01-23T09:26:49.541Z,-2.27
2023-01-23T09:29:21.040Z,-2.22
2023-01-23T09:32:04.745Z,-2.20
2023-01-23T09:34:43.051Z,-2.12
2023-01-23T09:37:58.399Z,-2.13
2023-01-23T09:41:06.429Z,-2.09
2023-01-23T09:44:03.736Z,-2.07
2023-01-23T09:47:16.365Z,-2.02
2023-01-23T09:50:10.625Z,-1.99
2023-01-23T09:53:32.799Z,-1.96
2023-01-23T09:59:58.840Z,-1.91
2023-01-23T10:03:19.854Z,-1.88
2023-01-23T10:10:48.703Z,-1.77
2023-01-23T10:22:07.760Z,-1.73
2023-01-23T10:41:08.136Z,-1.67
2023-01-23T10:44:56.421Z,-1.62
2023-01-23T10:48:09.206Z,-1.64
2023-01-23T11:48:12.098Z,-1.35
2023-01-23T11:50:56.150Z,-1.32
2023-01-23T11:53:42.697Z,-1.46
2023-01-23T11:57:34.619Z,-1.41
2023-01-23T12:05:08.921Z,-1.32
2023-01-23T12:28:32.026Z,-0.70
2023-01-23T13:09:47.257Z,-0.68
2023-01-23T13:12:36.003Z,-0.73
2023-01-23T13:16:08.922Z,-0.67
2023-01-23T13:19:02.990Z,-0.77
2023-01-23T13:21:57.471Z,-0.73
2023-01-23T13:24:52.044Z,-0.70
2023-01-23T13:27:43.272Z,-0.67
2023-01-23T13:31:26.471Z,-0.70
2023-01-23T13:34:37.380Z,-0.71
2023-01-23T13:37:43.931Z,-0.64
2023-01-23T13:40:22.708Z,-0.64
2023-01-23T13:42:54.180Z,-0.60
2023-01-23T13:45:39.183Z,-0.61
2023-01-23T14:23:50.964Z,-0.42
2023-01-23T14:26:43.815Z,-0.40
2023-01-23T14:29:25.536Z,-0.46
2023-01-23T14:32:01.844Z,-0.44
2023-01-23T14:34:52.698Z,-0.41
2023-01-23T14:37:31.625Z,-0.42
2023-01-23T14:43:09.343Z,-0.41
2023-01-23T14:48:45.273Z,-0.42
2023-01-23T14:51:38.970Z,-0.42
2023-01-23T14:54:33.353Z,-0.35
2023-01-23T14:57:04.735Z,-0.34
2023-01-23T14:59:34.435Z,-0.35
2023-01-23T15:02:22.622Z,-0.41
2023-01-23T15:05:34.638Z,-0.41
2023-01-23T15:09:12.351Z,-0.41
2023-01-23T15:11:40.348Z,-0.45
2023-01-23T15:17:53.130Z,-0.42
2023-01-23T15:21:20.157Z,-0.35
2023-01-23T15:24:16.933Z,-0.30
2023-01-23T15:27:33.605Z,-0.30
2023-01-23T15:33:42.761Z,-0.33
2023-01-23T15:36:26.648Z,-0.31
2023-01-23T15:38:54.959Z,-0.33
2023-01-23T15:41:55.580Z,-0.34
2023-01-23T15:44:33.626Z,-0.31
2023-01-23T15:47:13.655Z,-0.33
2023-01-23T15:49:52.371Z,-0.36
2023-01-23T15:52:53.232Z,-0.32
2023-01-23T15:55:23.208Z,-0.34
2023-01-23T15:57:56.941Z,-0.39
2023-01-23T16:00:41.746Z,-0.34
2023-01-23T16:03:12.978Z,-0.33
2023-01-23T16:05:59.585Z,-0.30
2023-01-23T16:09:05.141Z,-0.33
2023-01-23T16:11:46.069Z,-0.32
2023-01-23T16:14:48.918Z,-0.31
2023-01-23T16:17:24.026Z,-0.32
2023-01-23T16:20:04.451Z,-0.32
2023-01-23T16:22:46.927Z,-0.30
2023-01-23T16:25:52.994Z,-0.27
2023-01-23T16:29:08.681Z,-0.32
2023-01-23T16:31:54.091Z,-0.37
2023-01-23T16:34:40.004Z,-0.39
2023-01-23T16:37:13.235Z,-0.41
2023-01-23T16:39:44.843Z,-0.51
2023-01-23T16:42:27.995Z,-0.51
2023-01-23T16:48:21.616Z,-0.49
2023-01-23T16:51:00.990Z,-0.45
2023-01-23T16:53:50.448Z,-0.44
2023-01-23T16:56:52.934Z,-0.44
2023-01-23T16:59:21.224Z,-0.42
2023-01-23T17:01:51.155Z,-0.48
2023-01-23T17:04:22.046Z,-0.43
2023-01-23T17:06:56.200Z,-0.42
2023-01-23T17:09:36.381Z,-0.40
2023-01-23T17:12:04.495Z,-0.45
2023-01-23T17:14:32.693Z,-0.45
2023-01-23T17:17:08.787Z,-0.49
2023-01-23T17:19:39.463Z,-0.48
2023-01-23T17:22:14.389Z,-0.46
2023-01-23T17:24:44.293Z,-0.54
2023-01-23T17:27:12.201Z,-0.52
2023-01-23T17:29:48.685Z,-0.50
2023-01-23T17:32:31.791Z,-0.44
2023-01-23T17:35:02.653Z,-0.44
2023-01-23T17:37:32.499Z,-0.43
2023-01-23T17:40:00.494Z,-0.38
2023-01-23T17:42:33.916Z,-0.38
2023-01-23T17:45:01.817Z,-0.45
2023-01-23T17:47:30.014Z,-0.42
2023-01-23T17:49:58.451Z,-0.48
2023-01-23T17:52:28.711Z,-0.50
2023-01-23T17:54:57.718Z,-0.42
2023-01-23T17:57:25.297Z,-0.34
2023-01-23T17:59:54.855Z,-0.32
2023-01-23T18:02:27.283Z,-0.25
2023-01-23T18:04:55.747Z,-0.27
2023-01-23T18:07:23.313Z,-0.25
2023-01-23T18:09:51.160Z,-0.20
2023-01-23T18:12:27.006Z,-0.23
2023-01-23T18:14:58.408Z,-0.20
2023-01-23T18:17:36.512Z,-0.20
2023-01-23T18:20:05.033Z,-0.20
2023-01-23T18:22:33.410Z,-0.26
2023-01-23T18:25:01.496Z,-0.21
2023-01-23T18:27:31.626Z,-0.23
2023-01-23T18:30:21.433Z,-0.24
2023-01-23T18:33:07.919Z,-0.22
2023-01-23T18:36:00.985Z,-0.29
2023-01-23T18:38:33.971Z,-0.29
2023-01-23T18:41:11.564Z,-0.23
2023-01-23T18:43:43.717Z,-0.21
2023-01-23T18:46:14.051Z,-0.21
2023-01-23T18:48:43.048Z,-0.23
2023-01-23T18:51:20.302Z,-0.23
2023-01-23T18:53:53.018Z,-0.21
2023-01-23T18:56:26.077Z,-0.26
2023-01-23T18:59:11.475Z,-0.28
2023-01-23T19:01:45.004Z,-0.24
2023-01-23T19:04:14.739Z,-0.21
2023-01-23T19:06:44.198Z,-0.21
2023-01-23T19:09:19.354Z,-0.21
2023-01-23T19:11:59.425Z,-0.18
2023-01-23T19:14:41.371Z,-0.19
2023-01-23T19:17:16.609Z,-0.17
2023-01-23T19:19:49.658Z,-0.17
2023-01-23T19:22:19.190Z,-0.21
2023-01-23T19:24:47.341Z,-0.22
2023-01-23T19:27:21.301Z,-0.21
2023-01-23T19:29:50.606Z,-0.19
2023-01-23T19:32:18.904Z,-0.16
2023-01-23T19:34:46.504Z,-0.15
2023-01-23T19:37:14.747Z,-0.18
2023-01-23T19:39:42.610Z,-0.16
2023-01-23T19:42:14.053Z,-0.14
2023-01-23T19:44:41.722Z,-0.18
2023-01-23T19:47:10.875Z,-0.20
2023-01-23T19:49:38.453Z,-0.15
2023-01-23T19:52:06.101Z,-0.23
2023-01-23T19:54:33.714Z,-0.19
2023-01-23T19:57:01.576Z,-0.20
2023-01-23T19:59:29.289Z,-0.22
2023-01-23T20:01:57.079Z,-0.20
2023-01-23T20:04:26.160Z,-0.22
2023-01-23T20:06:53.806Z,-0.21
2023-01-23T20:09:21.582Z,-0.19
2023-01-23T20:11:49.245Z,-0.19
2023-01-23T20:14:16.913Z,-0.20
2023-01-23T20:16:44.690Z,-0.17
2023-01-23T20:19:13.912Z,-0.16
2023-01-23T20:21:43.075Z,-0.17
2023-01-23T20:24:11.147Z,-0.18
2023-01-23T20:27:08.754Z,-0.13
2023-01-23T20:29:43.272Z,-0.13
2023-01-23T20:32:13.775Z,-0.14
2023-01-23T20:34:58.344Z,-0.13
2023-01-23T20:38:43.819Z,-0.14
2023-01-23T20:41:02.774Z,-0.19
2023-01-23T20:43:40.509Z,-0.20
2023-01-23T20:46:13.695Z,-0.19
2023-01-23T20:48:52.529Z,-0.13
2023-01-23T20:51:28.462Z,-0.14
2023-01-23T20:53:58.872Z,-0.14
2023-01-23T20:56:32.549Z,-0.14
2023-01-23T20:59:24.134Z,-0.15
2023-01-23T21:02:09.482Z,-0.14
2023-01-23T21:04:40.695Z,-0.21
2023-01-23T21:07:11.399Z,-0.16
2023-01-23T21:09:40.602Z,-0.16
2023-01-23T21:12:11.859Z,-0.15
2023-01-23T21:14:48.337Z,-0.12
2023-01-23T21:17:16.260Z,-0.08
2023-01-23T21:19:44.669Z,-0.09
2023-01-23T21:22:12.521Z,-0.13
2023-01-23T21:24:44.483Z,-0.10
2023-01-23T21:27:23.455Z,-0.14
2023-01-23T21:29:58.169Z,-0.11
2023-01-23T21:32:33.098Z,-0.13
2023-01-23T21:35:08.618Z,-0.12
2023-01-23T21:37:37.257Z,-0.13
2023-01-23T21:40:08.494Z,-0.07
2023-01-23T21:42:37.090Z,-0.07
2023-01-23T21:45:05.349Z,-0.15
2023-01-23T21:47:42.936Z,-0.14
2023-01-23T21:50:11.961Z,-0.11
2023-01-23T21:52:39.756Z,-0.15
2023-01-23T21:55:09.661Z,-0.13
2023-01-23T21:57:37.429Z,-0.09
2023-01-23T22:00:23.531Z,-0.10
2023-01-23T22:02:51.300Z,-0.07
2023-01-23T22:05:19.298Z,-0.05
2023-01-23T22:07:48.449Z,-0.05
2023-01-23T22:10:17.853Z,-0.05
2023-01-23T22:12:45.516Z,-0.05
2023-01-23T22:15:13.167Z,-0.05
2023-01-23T22:17:40.812Z,-0.07
2023-01-23T22:20:09.620Z,-0.07
2023-01-23T22:22:37.229Z,-0.08
2023-01-23T22:25:05.320Z,-0.06
2023-01-23T22:27:34.358Z,-0.04
2023-01-23T22:30:01.941Z,-0.04
2023-01-23T22:32:54.384Z,-0.08
2023-01-23T22:35:24.758Z,-0.06
2023-01-23T22:37:52.751Z,-0.06
2023-01-23T22:40:20.562Z,-0.04
2023-01-23T22:42:49.622Z,-0.02
2023-01-23T22:45:17.461Z,-0.02
2023-01-23T22:47:45.020Z,0.01
2023-01-23T22:50:12.775Z,0.02
2023-01-23T22:52:41.803Z,-0.01
2023-01-23T22:55:10.181Z,0.01
2023-01-23T22:57:38.041Z,-0.02
2023-01-23T23:00:10.841Z,-0.02
2023-01-23T23:02:38.883Z,-0.05
2023-01-23T23:05:07.488Z,-0.02
2023-01-23T23:07:36.408Z,0.02
2023-01-23T23:10:04.312Z,0.01
2023-01-23T23:12:31.934Z,0.01
2023-01-23T23:14:59.503Z,0.02
2023-01-23T23:17:29.868Z,0.04
2023-01-23T23:19:57.571Z,0.06
2023-01-23T23:22:25.139Z,0.08
2023-01-23T23:24:53.113Z,0.04
2023-01-23T23:27:20.746Z,0.05
2023-01-23T23:29:48.371Z,0.04
2023-01-23T23:32:16.181Z,0.02
2023-01-23T23:34:45.329Z,0.05
2023-01-23T23:37:13.022Z,0.04
2023-01-23T23:39:40.633Z,0.06
2023-01-23T23:42:08.345Z,0.06
2023-01-23T23:44:35.966Z,0.07
2023-01-23T23:47:03.597Z,0.05
2023-01-23T23:49:31.206Z,0.01
2023-01-23T23:52:00.199Z,0.00
2023-01-23T23:54:28.060Z,0.03
2023-01-23T23:56:55.778Z,0.04
2023-01-23T23:59:23.470Z,0.02
